createdAt,value
2022-09-15T00:01:20.994Z,100099.13
2022-09-15T00:06:23.019Z,100095.97
2022-09-15T00:11:28.370Z,100106.56
2022-09-15T00:16:32.459Z,100103.06
2022-09-15T00:21:37.630Z,100097.22
2022-09-15T00:26:39.580Z,100096.28
2022-09-15T00:31:41.411Z,100094.53
2022-09-15T00:36:43.213Z,100092.47
2022-09-15T00:41:45.149Z,100094.13
2022-09-15T00:47:09.329Z,100092.31
2022-09-15T00:52:24.254Z,100096.25
2022-09-15T00:57:31.865Z,100096.38
2022-09-15T01:02:36.011Z,100086.47
2022-09-15T01:07:40.016Z,100089.03
2022-09-15T01:12:42.431Z,100097.53
2022-09-15T01:17:51.066Z,100100.63
2022-09-15T01:23:14.293Z,100084.53
2022-09-15T01:28:18.863Z,100080.88
2022-09-15T01:33:37.814Z,100093.75
2022-09-15T01:38:46.084Z,100087.91
2022-09-15T01:44:05.709Z,100086.97
2022-09-15T01:49:11.523Z,100086.25
2022-09-15T01:54:15.814Z,100088.03
2022-09-15T01:59:17.728Z,100091.59
2022-09-15T02:04:31.516Z,100087.47
2022-09-15T02:09:43.062Z,100100.38
2022-09-15T02:14:58.082Z,100100.63
2022-09-15T02:20:10.341Z,100113.63
2022-09-15T02:25:20.892Z,100107.69
2022-09-15T02:30:23.110Z,100107.53
2022-09-15T02:35:27.049Z,100099.66
2022-09-15T02:40:30.630Z,100100.81
2022-09-15T02:45:32.687Z,100100.50
2022-09-15T02:50:34.448Z,100097.22
2022-09-15T02:55:36.435Z,100106.28
2022-09-15T03:00:39.368Z,100105.97
2022-09-15T03:05:41.129Z,100103.06
2022-09-15T03:10:42.927Z,100110.75
2022-09-15T03:15:45.039Z,100105.00
2022-09-15T03:20:46.819Z,100102.34
2022-09-15T03:25:48.579Z,100103.06
2022-09-15T03:30:50.518Z,100103.28
2022-09-15T03:35:53.141Z,100093.59
2022-09-15T03:41:02.353Z,100098.41
2022-09-15T03:46:06.308Z,100101.81
2022-09-15T03:51:11.027Z,100100.28
2022-09-15T03:56:33.248Z,100106.50
2022-09-15T04:01:36.202Z,100090.69
2022-09-15T04:06:38.536Z,100094.31
2022-09-15T04:11:40.869Z,100093.50
2022-09-15T04:16:42.983Z,100083.34
2022-09-15T04:21:46.037Z,100089.81
2022-09-15T04:26:47.806Z,100092.38
2022-09-15T04:31:50.690Z,100099.16
2022-09-15T04:36:53.201Z,100106.78
2022-09-15T04:41:55.016Z,100109.19
2022-09-15T04:46:56.910Z,100114.16
2022-09-15T04:51:58.840Z,100110.50
2022-09-15T04:57:00.747Z,100117.22
2022-09-15T05:02:03.388Z,100113.41
2022-09-15T05:07:05.269Z,100121.88
2022-09-15T05:12:07.239Z,100123.59
2022-09-15T05:17:09.161Z,100131.03
2022-09-15T05:22:10.928Z,100130.22
2022-09-15T05:27:12.876Z,100131.34
2022-09-15T05:32:14.828Z,100131.88
2022-09-15T05:37:16.790Z,100131.31
2022-09-15T05:42:19.404Z,100146.00
2022-09-15T05:47:21.198Z,100135.53
2022-09-15T05:52:23.190Z,100143.59
2022-09-15T05:57:24.996Z,100149.69
2022-09-15T06:02:27.015Z,100153.31
2022-09-15T06:07:29.148Z,100158.84
2022-09-15T06:12:30.935Z,100164.31
2022-09-15T06:17:33.366Z,100165.44
2022-09-15T06:22:35.294Z,100166.88
2022-09-15T06:27:37.133Z,100166.72
2022-09-15T06:32:39.358Z,100164.31
2022-09-15T06:37:41.159Z,100173.31
2022-09-15T06:42:43.098Z,100163.00
2022-09-15T06:47:45.127Z,100171.13
2022-09-15T06:52:47.102Z,100179.56
2022-09-15T06:57:50.024Z,100188.91
2022-09-15T07:02:51.879Z,100191.38
2022-09-15T07:07:53.765Z,100195.97
2022-09-15T07:12:56.099Z,100198.19
2022-09-15T07:17:59.484Z,100209.91
2022-09-15T07:23:01.387Z,100218.91
2022-09-15T07:28:04.188Z,100217.56
2022-09-15T07:33:11.155Z,100211.75
2022-09-15T07:38:12.818Z,100225.25
2022-09-15T07:43:14.625Z,100228.91
2022-09-15T07:48:16.361Z,100234.28
2022-09-15T07:53:18.517Z,100243.19
2022-09-15T07:58:21.543Z,100241.34
2022-09-15T08:03:23.443Z,100254.50
2022-09-15T08:08:25.613Z,100258.75
2022-09-15T08:13:29.123Z,100252.53
2022-09-15T08:18:31.259Z,100262.16
2022-09-15T08:23:33.926Z,100272.28
2022-09-15T08:28:36.256Z,100281.31
2022-09-15T08:33:43.216Z,100287.28
2022-09-15T08:38:47.171Z,100286.66
2022-09-15T08:44:13.548Z,100296.16
2022-09-15T08:49:50.482Z,100290.34
2022-09-15T08:54:57.392Z,100288.94
2022-09-15T08:59:59.919Z,100292.53
2022-09-15T09:05:10.303Z,100294.31
2022-09-15T09:10:46.262Z,100298.84
2022-09-15T09:15:57.295Z,100294.47
2022-09-15T09:21:09.109Z,100306.38
2022-09-15T09:26:13.172Z,100312.88
2022-09-15T09:31:20.329Z,100313.25
2022-09-15T09:36:22.169Z,100318.09
2022-09-15T09:41:28.848Z,100317.97
2022-09-15T09:46:32.005Z,100313.94
2022-09-15T09:51:51.982Z,100322.25
2022-09-15T09:56:55.723Z,100320.41
2022-09-15T10:02:27.632Z,100319.69
2022-09-15T10:07:33.671Z,100302.75
2022-09-15T10:12:41.545Z,100307.00
2022-09-15T10:17:45.908Z,100308.44
2022-09-15T10:22:48.155Z,100293.94
2022-09-15T10:28:14.700Z,100291.13
2022-09-15T10:33:28.888Z,100295.88
2022-09-15T10:38:37.930Z,100296.59
2022-09-15T10:44:04.345Z,100292.81
2022-09-15T10:49:27.727Z,100293.53
2022-09-15T10:54:32.357Z,100285.38
2022-09-15T10:59:48.238Z,100285.03
2022-09-15T11:05:09.654Z,100299.41
2022-09-15T11:10:16.788Z,100301.63
2022-09-15T11:15:40.833Z,100307.72
2022-09-15T11:20:48.201Z,100314.56
2022-09-15T11:25:57.080Z,100309.06
2022-09-15T11:31:04.175Z,100308.94
2022-09-15T11:36:21.559Z,100312.88
2022-09-15T11:41:36.640Z,100310.78
2022-09-15T11:46:50.814Z,100308.22
2022-09-15T11:52:31.284Z,100308.09
2022-09-15T11:57:43.699Z,100306.66
2022-09-15T12:03:24.280Z,100303.72
2022-09-15T12:08:53.757Z,100309.78
2022-09-15T12:13:56.209Z,100309.91
2022-09-15T12:19:22.562Z,100309.34
2022-09-15T12:25:05.879Z,100315.94
2022-09-15T12:30:40.960Z,100314.44
2022-09-15T12:35:43.413Z,100318.69
2022-09-15T12:40:45.333Z,100316.50
2022-09-15T12:45:57.392Z,100317.50
2022-09-15T12:51:04.341Z,100324.69
2022-09-15T12:56:11.873Z,100359.19
2022-09-15T13:01:22.957Z,100360.03
2022-09-15T13:06:35.377Z,100359.78
2022-09-15T13:11:39.727Z,100359.28
2022-09-15T13:16:41.701Z,100367.34
2022-09-15T13:21:57.141Z,100367.09
2022-09-15T13:26:59.602Z,100364.28
2022-09-15T13:32:21.714Z,100357.00
2022-09-15T13:38:20.257Z,100366.72
2022-09-15T13:43:41.321Z,100369.56
2022-09-15T13:48:54.976Z,100361.38
2022-09-15T13:54:16.282Z,100352.47
2022-09-15T13:59:38.307Z,100341.41
2022-09-15T14:04:40.288Z,100347.13
2022-09-15T14:09:47.620Z,100335.66
2022-09-15T14:14:55.833Z,100343.47
2022-09-15T14:20:01.943Z,100345.19
2022-09-15T14:25:14.614Z,100345.06
2022-09-15T14:30:26.269Z,100339.09
2022-09-15T14:35:39.670Z,100341.88
2022-09-15T14:40:41.511Z,100341.03
2022-09-15T14:45:54.565Z,100343.34
2022-09-15T14:51:07.477Z,100341.03
2022-09-15T14:56:14.957Z,100349.44
2022-09-15T15:01:19.315Z,100348.00
2022-09-15T15:06:38.815Z,100353.56
2022-09-15T15:11:42.232Z,100345.41
2022-09-15T15:16:58.251Z,100345.66
2022-09-15T15:22:12.359Z,100342.97
2022-09-15T15:27:54.281Z,100348.72
2022-09-15T15:32:58.405Z,100349.81
2022-09-15T15:38:03.213Z,100347.00
2022-09-15T15:43:26.597Z,100352.34
2022-09-15T15:48:38.322Z,100358.94
2022-09-15T15:53:41.279Z,100362.09
2022-09-15T15:58:43.117Z,100363.91
2022-09-15T16:03:45.500Z,100365.66
2022-09-15T16:08:47.243Z,100362.09
2022-09-15T16:13:49.010Z,100369.78
2022-09-15T16:18:51.207Z,100368.44
2022-09-15T16:23:53.425Z,100367.09
2022-09-15T16:28:55.272Z,100365.88
2022-09-15T16:33:57.087Z,100363.22
2022-09-15T16:38:58.947Z,100364.91
2022-09-15T16:44:02.739Z,100367.59
2022-09-15T16:49:04.738Z,100371.00
2022-09-15T16:54:15.837Z,100383.91
2022-09-15T16:59:18.152Z,100387.81
2022-09-15T17:04:20.380Z,100387.94
2022-09-15T17:09:22.193Z,100389.28
2022-09-15T17:14:24.269Z,100402.56
2022-09-15T17:19:26.494Z,100400.34
2022-09-15T17:24:28.608Z,100395.25
2022-09-15T17:29:30.701Z,100419.75
2022-09-15T17:34:32.644Z,100410.94
2022-09-15T17:39:35.662Z,100403.50
2022-09-15T17:44:37.826Z,100408.34
2022-09-15T17:49:39.854Z,100406.78
2022-09-15T17:54:41.794Z,100405.09
2022-09-15T17:59:43.887Z,100408.00
2022-09-15T18:04:46.922Z,100416.50
2022-09-15T18:09:48.683Z,100421.63
2022-09-15T18:14:50.341Z,100428.56
2022-09-15T18:19:52.586Z,100423.69
2022-09-15T18:24:54.331Z,100425.16
2022-09-15T18:29:56.313Z,100438.03
2022-09-15T18:34:58.383Z,100435.34
2022-09-15T18:40:00.445Z,100441.06
2022-09-15T18:45:02.984Z,100437.03
2022-09-15T18:50:06.825Z,100444.44
2022-09-15T18:55:11.961Z,100447.72
2022-09-15T19:00:17.228Z,100450.72
2022-09-15T19:05:19.321Z,100449.53
2022-09-15T19:10:21.969Z,100444.44
2022-09-15T19:15:24.100Z,100451.72
2022-09-15T19:20:25.899Z,100453.41
2022-09-15T19:25:27.915Z,100456.09
2022-09-15T19:30:30.153Z,100453.56
2022-09-15T19:35:31.995Z,100457.72
2022-09-15T19:40:33.920Z,100465.09
2022-09-15T19:45:35.765Z,100456.69
2022-09-15T19:50:39.317Z,100467.41
2022-09-15T19:55:41.848Z,100465.66
2022-09-15T20:00:43.798Z,100470.72
2022-09-15T20:05:53.861Z,100473.50
2022-09-15T20:10:55.702Z,100474.22
2022-09-15T20:16:00.220Z,100469.09
2022-09-15T20:21:08.461Z,100478.94
2022-09-15T20:26:13.293Z,100483.81
2022-09-15T20:31:26.509Z,100482.81
2022-09-15T20:36:34.226Z,100500.72
2022-09-15T20:41:36.150Z,100499.88
2022-09-15T20:46:37.941Z,100499.00
2022-09-15T20:51:39.693Z,100499.41
2022-09-15T20:56:41.365Z,100502.22
2022-09-15T21:01:43.785Z,100504.50
2022-09-15T21:06:45.698Z,100501.47
2022-09-15T21:11:52.713Z,100503.50
2022-09-15T21:16:55.159Z,100498.16
2022-09-15T21:21:58.739Z,100497.19
2022-09-15T21:27:18.938Z,100504.81
2022-09-15T21:32:21.371Z,100508.16
2022-09-15T21:37:26.681Z,100511.56
2022-09-15T21:42:28.896Z,100513.31
2022-09-15T21:47:31.613Z,100514.69
2022-09-15T21:52:33.654Z,100511.97
2022-09-15T21:57:35.668Z,100516.41
2022-09-15T22:02:37.373Z,100517.81
2022-09-15T22:07:39.716Z,100512.84
2022-09-15T22:12:41.450Z,100514.41
2022-09-15T22:17:43.314Z,100517.59
2022-09-15T22:22:46.152Z,100517.84
2022-09-15T22:27:48.112Z,100526.47
2022-09-15T22:32:50.063Z,100515.66
2022-09-15T22:37:51.950Z,100512.97
2022-09-15T22:42:53.871Z,100518.19
2022-09-15T22:47:56.119Z,100509.81
2022-09-15T22:52:57.895Z,100510.06
2022-09-15T22:57:59.691Z,100514.69
2022-09-15T23:03:01.760Z,100510.69
2022-09-15T23:08:04.004Z,100517.97
2022-09-15T23:13:05.906Z,100509.69
2022-09-15T23:18:07.819Z,100515.06
2022-09-15T23:23:09.654Z,100508.75
2022-09-15T23:28:11.532Z,100506.91
2022-09-15T23:33:13.363Z,100506.91
2022-09-15T23:38:15.662Z,100500.56
2022-09-15T23:43:18.156Z,100494.00
2022-09-15T23:48:20.949Z,100489.84
2022-09-15T23:53:24.350Z,100490.59
2022-09-15T23:58:26.549Z,100487.91
